createdAt,value
2023-01-10T00:02:25.438Z,5.00
2023-01-10T00:04:58.379Z,5.00
2023-01-10T00:07:31.268Z,5.00
2023-01-10T00:10:04.044Z,5.10
2023-01-10T00:12:55.428Z,5.00
2023-01-10T00:15:47.821Z,5.00
2023-01-10T00:18:22.443Z,5.00
2023-01-10T00:20:54.480Z,5.00
2023-01-10T00:23:27.133Z,5.10
2023-01-10T00:25:59.310Z,5.10
2023-01-10T00:28:34.458Z,5.10
2023-01-10T00:31:08.352Z,5.10
2023-01-10T00:33:42.619Z,5.10
2023-01-10T00:36:14.843Z,5.10
2023-01-10T00:38:47.008Z,5.10
2023-01-10T00:41:39.391Z,5.10
2023-01-10T00:44:31.258Z,5.10
2023-01-10T00:47:03.508Z,5.10
2023-01-10T00:49:35.589Z,5.20
2023-01-10T00:52:07.930Z,5.20
2023-01-10T00:54:39.862Z,5.20
2023-01-10T00:57:11.926Z,5.20
2023-01-10T00:59:44.163Z,5.20
2023-01-10T01:02:16.549Z,5.10
2023-01-10T01:04:48.940Z,5.20
2023-01-10T01:07:21.004Z,5.20
2023-01-10T01:10:11.569Z,5.20
2023-01-10T01:13:06.385Z,5.20
2023-01-10T01:15:43.371Z,5.20
2023-01-10T01:18:19.104Z,5.20
2023-01-10T01:20:57.068Z,5.20
2023-01-10T01:23:34.961Z,5.20
2023-01-10T01:26:08.265Z,5.20
2023-01-10T01:28:42.283Z,5.20
2023-01-10T01:31:14.434Z,5.20
2023-01-10T01:33:46.689Z,5.20
2023-01-10T01:36:18.716Z,5.20
2023-01-10T01:38:50.721Z,5.20
2023-01-10T01:41:41.127Z,5.20
2023-01-10T01:44:33.504Z,5.20
2023-01-10T01:47:20.427Z,5.20
2023-01-10T01:49:56.673Z,5.20
2023-01-10T01:52:32.756Z,5.10
2023-01-10T01:55:06.753Z,5.10
2023-01-10T01:57:39.435Z,5.10
2023-01-10T02:00:12.373Z,5.10
2023-01-10T02:03:02.164Z,5.10
2023-01-10T02:05:39.237Z,5.10
2023-01-10T02:08:13.343Z,5.10
2023-01-10T02:11:15.002Z,5.10
2023-01-10T02:13:48.966Z,5.10
2023-01-10T02:16:22.189Z,5.10
2023-01-10T02:18:54.262Z,5.10
2023-01-10T02:22:24.338Z,5.10
2023-01-10T02:25:43.841Z,5.00
2023-01-10T02:28:52.636Z,5.00
2023-01-10T02:31:59.430Z,4.90
2023-01-10T02:35:08.304Z,4.90
2023-01-10T02:38:30.894Z,4.90
2023-01-10T02:42:01.406Z,4.90
2023-01-10T02:44:58.189Z,4.80
2023-01-10T02:47:41.639Z,4.80
2023-01-10T02:50:35.823Z,4.80
2023-01-10T02:53:36.855Z,4.80
2023-01-10T02:56:33.909Z,4.80
2023-01-10T02:59:47.650Z,4.70
2023-01-10T03:02:52.994Z,4.70
2023-01-10T03:05:50.696Z,4.60
2023-01-10T03:08:45.312Z,4.60
2023-01-10T03:11:43.144Z,4.60
2023-01-10T03:14:22.438Z,4.60
2023-01-10T03:17:02.418Z,4.60
2023-01-10T03:19:44.767Z,4.60
2023-01-10T03:22:20.906Z,4.60
2023-01-10T03:24:58.549Z,4.50
2023-01-10T03:27:37.701Z,4.50
2023-01-10T03:30:45.428Z,4.50
2023-01-10T03:33:27.222Z,4.50
2023-01-10T03:36:18.944Z,4.50
2023-01-10T03:39:30.868Z,4.50
2023-01-10T03:42:59.134Z,4.50
2023-01-10T03:45:58.121Z,4.50
2023-01-10T03:48:38.746Z,4.50
2023-01-10T03:51:15.107Z,4.50
2023-01-10T03:53:48.859Z,4.50
2023-01-10T03:56:20.797Z,4.50
2023-01-10T03:58:52.756Z,4.50
2023-01-10T04:01:24.894Z,4.50
2023-01-10T04:03:58.116Z,4.50
2023-01-10T04:06:30.626Z,4.50
2023-01-10T04:09:02.677Z,4.50
2023-01-10T04:11:34.792Z,4.50
2023-01-10T04:14:07.109Z,4.50
2023-01-10T04:16:39.091Z,4.50
2023-01-10T04:19:11.094Z,4.40
2023-01-10T04:21:43.045Z,4.40
2023-01-10T04:24:15.016Z,4.30
2023-01-10T04:26:47.069Z,4.30
2023-01-10T04:29:18.991Z,4.30
2023-01-10T04:31:51.497Z,4.30
2023-01-10T04:34:23.743Z,4.30
2023-01-10T04:36:55.813Z,4.20
2023-01-10T04:39:27.771Z,4.20
2023-01-10T04:41:59.817Z,4.20
2023-01-10T04:44:31.713Z,4.20
2023-01-10T04:47:03.711Z,4.20
2023-01-10T04:49:35.971Z,4.10
2023-01-10T04:52:08.123Z,4.10
2023-01-10T04:54:41.027Z,4.10
2023-01-10T04:57:13.022Z,4.10
2023-01-10T04:59:45.072Z,4.10
2023-01-10T05:05:04.350Z,4.00
2023-01-10T05:07:37.456Z,4.00
2023-01-10T05:10:11.166Z,4.00
2023-01-10T05:12:43.719Z,4.00
2023-01-10T05:15:16.839Z,4.10
2023-01-10T05:17:51.130Z,4.00
2023-01-10T05:20:29.342Z,4.10
2023-01-10T05:23:01.426Z,4.10
2023-01-10T05:25:33.493Z,4.10
2023-01-10T05:28:05.659Z,4.20
2023-01-10T05:30:38.008Z,4.30
2023-01-10T05:33:10.223Z,4.30
2023-01-10T05:35:42.402Z,4.30
2023-01-10T05:38:14.352Z,4.30
2023-01-10T05:40:46.268Z,4.30
2023-01-10T05:43:18.251Z,4.40
2023-01-10T05:45:50.446Z,4.40
2023-01-10T05:48:22.835Z,4.40
2023-01-10T05:50:55.058Z,4.40
2023-01-10T05:53:28.417Z,4.40
2023-01-10T05:56:02.665Z,4.40
2023-01-10T05:58:35.050Z,4.40
2023-01-10T06:01:07.403Z,4.40
2023-01-10T06:03:40.566Z,4.40
2023-01-10T06:06:12.714Z,4.40
2023-01-10T06:08:44.865Z,4.40
2023-01-10T06:11:16.953Z,4.40
2023-01-10T06:14:09.027Z,4.40
2023-01-10T06:16:41.837Z,4.40
2023-01-10T06:19:14.664Z,4.50
2023-01-10T06:21:46.703Z,4.40
2023-01-10T06:24:18.729Z,4.40
2023-01-10T06:26:50.789Z,4.40
2023-01-10T06:29:22.783Z,4.50
2023-01-10T06:31:55.152Z,4.50
2023-01-10T06:34:27.275Z,4.40
2023-01-10T06:36:59.278Z,4.50
2023-01-10T06:39:31.391Z,4.50
2023-01-10T06:42:03.402Z,4.50
2023-01-10T06:44:35.803Z,4.50
2023-01-10T06:47:07.913Z,4.50
2023-01-10T06:49:40.001Z,4.50
2023-01-10T06:52:11.930Z,4.50
2023-01-10T06:54:44.088Z,4.50
2023-01-10T06:57:16.195Z,4.50
2023-01-10T06:59:48.298Z,4.50
2023-01-10T07:02:20.739Z,4.40
2023-01-10T07:04:53.035Z,4.50
2023-01-10T07:07:25.343Z,4.50
2023-01-10T07:09:59.987Z,4.50
2023-01-10T07:12:33.149Z,4.50
2023-01-10T07:15:05.740Z,4.50
2023-01-10T07:17:38.905Z,4.50
2023-01-10T07:20:11.697Z,4.50
2023-01-10T07:22:43.955Z,4.50
2023-01-10T07:25:25.648Z,4.50
2023-01-10T07:27:59.308Z,4.50
2023-01-10T07:30:31.477Z,4.50
2023-01-10T07:33:04.084Z,4.50
2023-01-10T07:35:37.287Z,4.50
2023-01-10T07:38:09.705Z,4.50
2023-01-10T07:40:41.850Z,4.50
2023-01-10T07:43:15.533Z,4.50
2023-01-10T07:45:47.825Z,4.50
2023-01-10T07:48:20.135Z,4.50
2023-01-10T07:51:00.387Z,4.50
2023-01-10T07:53:33.400Z,4.50
2023-01-10T07:56:06.103Z,4.50
2023-01-10T07:58:38.524Z,4.50
2023-01-10T08:01:11.190Z,4.50
2023-01-10T08:03:44.510Z,4.50
2023-01-10T08:06:16.946Z,4.50
2023-01-10T08:08:49.015Z,4.50
2023-01-10T08:11:21.009Z,4.60
2023-01-10T08:13:53.678Z,4.50
2023-01-10T08:16:26.042Z,4.60
2023-01-10T08:18:58.748Z,4.60
2023-01-10T08:21:31.252Z,4.60
2023-01-10T08:24:03.949Z,4.60
2023-01-10T08:26:36.505Z,4.60
2023-01-10T08:29:08.698Z,4.70
2023-01-10T08:31:41.928Z,4.70
2023-01-10T08:34:14.786Z,4.70
2023-01-10T08:36:51.719Z,4.70
2023-01-10T08:39:26.672Z,4.80
2023-01-10T08:42:00.141Z,4.80
2023-01-10T08:44:32.391Z,4.90
2023-01-10T08:47:04.899Z,4.90
2023-01-10T08:49:37.157Z,4.90
2023-01-10T08:52:09.870Z,4.90
2023-01-10T08:54:41.985Z,5.00
2023-01-10T08:57:14.390Z,5.00
2023-01-10T08:59:46.628Z,5.10
2023-01-10T09:02:19.346Z,5.10
2023-01-10T09:04:51.703Z,5.10
2023-01-10T09:07:24.089Z,5.10
2023-01-10T09:09:56.369Z,5.10
2023-01-10T09:12:47.584Z,5.10
2023-01-10T09:15:35.343Z,5.20
2023-01-10T09:18:10.463Z,5.10
2023-01-10T09:20:43.866Z,5.20
2023-01-10T09:23:20.476Z,5.20
2023-01-10T09:25:56.082Z,5.20
2023-01-10T09:28:31.069Z,5.20
2023-01-10T09:31:17.720Z,5.20
2023-01-10T09:33:50.093Z,5.20
2023-01-10T09:36:22.772Z,5.20
2023-01-10T09:38:55.231Z,5.20
2023-01-10T09:41:53.767Z,5.30
2023-01-10T09:45:12.013Z,5.30
2023-01-10T09:47:57.930Z,5.30
2023-01-10T09:50:51.600Z,5.30
2023-01-10T09:53:45.068Z,5.30
2023-01-10T09:56:19.429Z,5.40
2023-01-10T09:58:52.863Z,5.40
2023-01-10T10:01:32.923Z,5.40
2023-01-10T10:04:27.535Z,5.50
2023-01-10T10:07:13.404Z,5.50
2023-01-10T10:09:46.345Z,5.50
2023-01-10T10:12:47.551Z,5.60
2023-01-10T10:15:59.859Z,5.60
2023-01-10T10:19:10.189Z,5.60
2023-01-10T10:22:21.344Z,5.60
2023-01-10T10:25:25.222Z,5.70
2023-01-10T10:28:53.677Z,5.70
2023-01-10T10:31:49.583Z,5.70
2023-01-10T10:34:54.016Z,5.70
2023-01-10T10:38:02.888Z,5.80
2023-01-10T10:40:45.935Z,5.90
2023-01-10T10:43:28.006Z,6.00
2023-01-10T10:46:05.457Z,6.00
2023-01-10T10:48:50.926Z,6.00
2023-01-10T10:51:54.139Z,6.00
2023-01-10T10:54:27.321Z,6.00
2023-01-10T10:57:00.478Z,6.00
2023-01-10T10:59:33.343Z,6.10
2023-01-10T11:02:29.002Z,6.10
2023-01-10T11:05:08.972Z,6.10
2023-01-10T11:08:08.607Z,6.10
2023-01-10T11:10:55.817Z,6.10
2023-01-10T11:13:33.955Z,6.10
2023-01-10T11:16:26.849Z,6.10
2023-01-10T11:19:21.037Z,6.10
2023-01-10T11:22:02.637Z,6.20
2023-01-10T11:24:45.237Z,6.20
2023-01-10T11:27:28.299Z,6.20
2023-01-10T11:30:36.857Z,6.30
2023-01-10T11:33:21.280Z,6.30
2023-01-10T11:36:01.730Z,6.40
2023-01-10T11:38:37.968Z,6.40
2023-01-10T11:41:19.479Z,6.50
2023-01-10T11:44:41.019Z,6.50
2023-01-10T11:47:16.159Z,6.50
2023-01-10T11:49:52.166Z,6.40
2023-01-10T11:52:30.546Z,6.40
2023-01-10T11:55:07.744Z,6.50
2023-01-10T11:57:41.014Z,6.50
2023-01-10T12:00:16.313Z,6.50
2023-01-10T12:02:50.813Z,6.40
2023-01-10T12:05:24.507Z,6.40
2023-01-10T12:08:06.494Z,6.40
2023-01-10T12:11:08.010Z,6.30
2023-01-10T12:14:01.091Z,6.30
2023-01-10T12:16:35.387Z,6.30
2023-01-10T12:19:13.295Z,6.30
2023-01-10T12:21:47.688Z,6.40
2023-01-10T12:24:27.287Z,6.50
2023-01-10T12:27:06.770Z,6.60
2023-01-10T12:29:58.559Z,6.80
2023-01-10T12:32:44.448Z,6.90
2023-01-10T12:35:44.534Z,6.90
2023-01-10T12:38:55.115Z,7.10
2023-01-10T12:42:34.610Z,7.20
2023-01-10T12:45:30.375Z,7.10
2023-01-10T12:48:38.650Z,7.10
2023-01-10T12:51:31.400Z,7.00
2023-01-10T12:54:15.357Z,6.90
2023-01-10T12:56:52.738Z,6.90
2023-01-10T12:59:43.146Z,6.90
2023-01-10T13:02:21.802Z,6.90
2023-01-10T13:05:21.959Z,6.80
2023-01-10T13:08:07.108Z,6.80
2023-01-10T13:10:47.512Z,6.70
2023-01-10T13:13:42.685Z,6.70
2023-01-10T13:16:47.496Z,6.70
2023-01-10T13:19:28.684Z,6.70
2023-01-10T13:22:23.751Z,6.60
2023-01-10T13:25:00.855Z,6.60
2023-01-10T13:27:35.739Z,6.70
2023-01-10T13:30:26.449Z,6.70
2023-01-10T13:33:24.593Z,6.70
2023-01-10T13:36:28.481Z,6.80
2023-01-10T13:39:18.647Z,6.80
2023-01-10T13:42:18.911Z,6.90
2023-01-10T13:45:13.338Z,6.90
2023-01-10T13:47:54.725Z,7.00
2023-01-10T13:50:42.378Z,7.00
2023-01-10T13:53:43.644Z,7.10
2023-01-10T13:56:39.326Z,7.20
2023-01-10T13:59:43.637Z,7.20
2023-01-10T14:02:42.870Z,7.20
2023-01-10T14:05:19.061Z,7.20
2023-01-10T14:07:58.676Z,7.10
2023-01-10T14:10:33.288Z,7.10
2023-01-10T14:13:18.780Z,7.10
2023-01-10T14:15:53.219Z,7.10
2023-01-10T14:18:34.881Z,7.00
2023-01-10T14:21:22.607Z,7.00
2023-01-10T14:23:58.658Z,7.00
2023-01-10T14:26:36.857Z,6.90
2023-01-10T14:29:15.862Z,6.90
2023-01-10T14:31:56.378Z,6.90
2023-01-10T14:34:36.948Z,6.80
2023-01-10T14:37:25.554Z,6.80
2023-01-10T14:40:06.651Z,6.80
2023-01-10T14:43:03.023Z,6.70
2023-01-10T14:45:44.789Z,6.70
2023-01-10T14:48:46.339Z,6.60
2023-01-10T14:51:24.071Z,6.60
2023-01-10T14:54:18.077Z,6.50
2023-01-10T14:56:53.451Z,6.50
2023-01-10T14:59:30.715Z,6.40
2023-01-10T15:02:26.087Z,6.40
2023-01-10T15:05:27.578Z,6.30
2023-01-10T15:08:30.369Z,6.30
2023-01-10T15:11:06.762Z,6.30
2023-01-10T15:13:52.525Z,6.20
2023-01-10T15:16:31.722Z,6.20
2023-01-10T15:19:04.825Z,6.10
2023-01-10T15:21:43.459Z,6.10
2023-01-10T15:24:36.758Z,6.00
2023-01-10T15:27:14.968Z,6.00
2023-01-10T15:29:47.504Z,5.90
2023-01-10T15:32:28.693Z,5.90
2023-01-10T15:35:10.940Z,5.90
2023-01-10T15:37:55.977Z,5.80
2023-01-10T15:40:37.195Z,5.80
2023-01-10T15:43:24.521Z,5.70
2023-01-10T15:46:01.866Z,5.70
2023-01-10T15:48:40.144Z,5.70
2023-01-10T15:51:38.871Z,5.70
2023-01-10T15:54:24.326Z,5.60
2023-01-10T15:57:18.984Z,5.60
2023-01-10T15:59:59.700Z,5.60
2023-01-10T16:02:33.449Z,5.50
2023-01-10T16:05:15.545Z,5.50
2023-01-10T16:07:49.821Z,5.50
2023-01-10T16:10:24.736Z,5.40
2023-01-10T16:13:31.768Z,5.40
2023-01-10T16:16:16.984Z,5.40
2023-01-10T16:18:50.091Z,5.30
2023-01-10T16:21:22.950Z,5.20
2023-01-10T16:24:06.723Z,5.20
2023-01-10T16:26:49.408Z,5.20
2023-01-10T16:29:23.850Z,5.20
2023-01-10T16:31:56.770Z,5.10
2023-01-10T16:34:29.809Z,5.10
2023-01-10T16:37:05.743Z,5.00
2023-01-10T16:39:39.756Z,5.00
2023-01-10T16:42:30.268Z,5.00
2023-01-10T16:45:22.694Z,4.90
2023-01-10T16:47:55.199Z,5.00
2023-01-10T16:50:28.244Z,5.00
2023-01-10T16:53:00.728Z,5.00
2023-01-10T16:55:50.553Z,5.00
2023-01-10T16:58:24.551Z,5.00
2023-01-10T17:00:59.173Z,5.00
2023-01-10T17:03:39.955Z,5.00
2023-01-10T17:06:15.779Z,4.90
2023-01-10T17:08:50.102Z,4.90
2023-01-10T17:11:33.992Z,4.90
2023-01-10T17:14:14.979Z,4.90
2023-01-10T17:16:50.083Z,4.90
2023-01-10T17:19:24.505Z,4.90
2023-01-10T17:21:58.153Z,4.90
2023-01-10T17:24:31.887Z,4.90
2023-01-10T17:27:05.134Z,4.90
2023-01-10T17:29:38.373Z,4.90
2023-01-10T17:32:11.557Z,4.90
2023-01-10T17:34:44.744Z,4.90
2023-01-10T17:37:18.699Z,4.90
2023-01-10T17:39:51.610Z,4.90
2023-01-10T17:42:25.084Z,5.00
2023-01-10T17:44:58.548Z,4.90
2023-01-10T17:47:32.551Z,5.00
2023-01-10T17:50:06.721Z,5.00
2023-01-10T17:52:39.887Z,5.00
2023-01-10T17:55:12.418Z,5.10
2023-01-10T17:57:45.905Z,5.00
2023-01-10T18:00:19.584Z,5.10
2023-01-10T18:02:52.193Z,5.10
2023-01-10T18:05:25.886Z,5.10
2023-01-10T18:08:01.521Z,5.10
2023-01-10T18:10:37.595Z,5.10
2023-01-10T18:13:14.096Z,5.10
2023-01-10T18:15:50.047Z,5.10
2023-01-10T18:18:27.064Z,5.10
2023-01-10T18:21:02.644Z,5.20
2023-01-10T18:23:45.391Z,5.20
2023-01-10T18:26:25.308Z,5.10
2023-01-10T18:28:59.459Z,5.20
2023-01-10T18:31:32.506Z,5.10
2023-01-10T18:34:06.617Z,5.20
2023-01-10T18:36:41.717Z,5.20
2023-01-10T18:39:18.711Z,5.20
2023-01-10T18:41:51.892Z,5.20
2023-01-10T18:44:25.789Z,5.20
2023-01-10T18:46:58.861Z,5.20
2023-01-10T18:49:33.780Z,5.20
2023-01-10T18:52:07.925Z,5.20
2023-01-10T18:54:42.046Z,5.20
2023-01-10T18:57:15.438Z,5.20
2023-01-10T18:59:49.000Z,5.10
2023-01-10T19:02:31.296Z,5.10
2023-01-10T19:05:08.562Z,5.10
2023-01-10T19:07:45.571Z,5.20
2023-01-10T19:10:20.246Z,5.20
2023-01-10T19:12:56.430Z,5.20
2023-01-10T19:15:30.351Z,5.20
2023-01-10T19:18:07.697Z,5.20
2023-01-10T19:20:42.207Z,5.20
2023-01-10T19:23:15.893Z,5.20
2023-01-10T19:25:55.024Z,5.20
2023-01-10T19:28:32.831Z,5.20
2023-01-10T19:31:06.279Z,5.20
2023-01-10T19:33:42.189Z,5.30
2023-01-10T19:36:19.734Z,5.20
2023-01-10T19:38:58.640Z,5.30
2023-01-10T19:41:32.166Z,5.20
2023-01-10T19:44:15.262Z,5.20
2023-01-10T19:46:49.531Z,5.20
2023-01-10T19:49:24.929Z,5.20
2023-01-10T19:52:01.137Z,5.20
2023-01-10T19:54:36.179Z,5.20
2023-01-10T19:59:46.477Z,5.20
2023-01-10T20:02:23.858Z,5.20
2023-01-10T20:04:58.036Z,5.20
2023-01-10T20:07:33.915Z,5.20
2023-01-10T20:10:10.337Z,5.20
2023-01-10T20:12:45.236Z,5.20
2023-01-10T20:15:18.607Z,5.20
2023-01-10T20:17:57.335Z,5.20
2023-01-10T20:20:36.435Z,5.30
2023-01-10T20:23:14.068Z,5.30
2023-01-10T20:26:07.489Z,5.30
2023-01-10T20:28:49.049Z,5.30
2023-01-10T20:31:28.241Z,5.30
2023-01-10T20:34:07.141Z,5.40
2023-01-10T20:36:43.775Z,5.40
2023-01-10T20:39:28.078Z,5.40
2023-01-10T20:42:03.035Z,5.40
2023-01-10T20:44:59.769Z,5.40
2023-01-10T20:47:37.424Z,5.40
2023-01-10T20:50:11.190Z,5.40
2023-01-10T20:52:45.283Z,5.40
2023-01-10T20:55:20.541Z,5.40
2023-01-10T20:57:54.783Z,5.40
2023-01-10T21:00:29.641Z,5.40
2023-01-10T21:03:04.024Z,5.40
2023-01-10T21:05:40.743Z,5.40
2023-01-10T21:08:24.761Z,5.40
2023-01-10T21:11:01.745Z,5.50
2023-01-10T21:13:37.563Z,5.50
2023-01-10T21:16:15.296Z,5.50
2023-01-10T21:18:51.200Z,5.50
2023-01-10T21:21:26.438Z,5.60
2023-01-10T21:23:59.900Z,5.60
2023-01-10T21:26:42.687Z,5.50
2023-01-10T21:29:16.229Z,5.60
2023-01-10T21:31:57.174Z,5.60
2023-01-10T21:34:34.388Z,5.60
2023-01-10T21:37:10.945Z,5.60
2023-01-10T21:39:44.335Z,5.60
2023-01-10T21:42:37.368Z,5.60
2023-01-10T21:45:17.734Z,5.60
2023-01-10T21:47:52.992Z,5.60
2023-01-10T21:50:28.345Z,5.60
2023-01-10T21:53:07.626Z,5.60
2023-01-10T21:55:44.360Z,5.60
2023-01-10T21:58:17.802Z,5.60
2023-01-10T22:01:02.383Z,5.60
2023-01-10T22:03:36.574Z,5.60
2023-01-10T22:06:10.705Z,5.60
2023-01-10T22:08:43.985Z,5.60
2023-01-10T22:11:17.174Z,5.60
2023-01-10T22:13:53.321Z,5.60
2023-01-10T22:16:27.061Z,5.60
2023-01-10T22:19:01.482Z,5.50
2023-01-10T22:21:34.705Z,5.60
2023-01-10T22:24:07.664Z,5.60
2023-01-10T22:26:40.527Z,5.60
2023-01-10T22:29:12.882Z,5.60
2023-01-10T22:31:46.922Z,5.60
2023-01-10T22:34:20.116Z,5.60
2023-01-10T22:36:52.430Z,5.60
2023-01-10T22:39:25.226Z,5.60
2023-01-10T22:41:57.476Z,5.60
2023-01-10T22:44:29.822Z,5.60
2023-01-10T22:47:02.043Z,5.60
2023-01-10T22:49:34.699Z,5.60
2023-01-10T22:52:08.548Z,5.60
2023-01-10T22:54:43.010Z,5.60
2023-01-10T22:57:15.562Z,5.70
2023-01-10T22:59:48.974Z,5.70
2023-01-10T23:02:21.707Z,5.70
2023-01-10T23:04:54.130Z,5.70
2023-01-10T23:07:26.796Z,5.70
2023-01-10T23:09:59.062Z,5.80
2023-01-10T23:12:31.830Z,5.80
2023-01-10T23:15:05.266Z,5.80
2023-01-10T23:17:38.229Z,5.80
2023-01-10T23:20:11.063Z,5.90
2023-01-10T23:22:44.041Z,5.90
2023-01-10T23:25:16.750Z,5.90
2023-01-10T23:27:50.330Z,6.00
2023-01-10T23:30:27.105Z,6.00
2023-01-10T23:33:00.854Z,6.10
2023-01-10T23:35:33.331Z,6.20
2023-01-10T23:38:07.092Z,6.20
2023-01-10T23:40:39.715Z,6.20
2023-01-10T23:43:12.380Z,6.20
2023-01-10T23:45:45.429Z,6.20
2023-01-10T23:48:17.896Z,6.20
2023-01-10T23:50:51.889Z,6.20
2023-01-10T23:53:25.011Z,6.20
2023-01-10T23:55:58.207Z,6.30
2023-01-10T23:58:36.618Z,6.30
